createdAt,value
2018-09-05T00:01:48.030Z,14.67
2018-09-05T00:04:16.415Z,14.53
2018-09-05T00:06:44.728Z,13.10
2018-09-05T00:09:13.050Z,14.17
2018-09-05T00:11:41.399Z,14.13
2018-09-05T00:14:10.122Z,13.10
2018-09-05T00:16:38.510Z,14.80
2018-09-05T00:19:06.936Z,15.33
2018-09-05T00:21:35.263Z,16.33
2018-09-05T00:24:03.717Z,17.27
2018-09-05T00:26:32.131Z,15.13
2018-09-05T00:29:00.611Z,15.93
2018-09-05T00:31:28.948Z,16.37
2018-09-05T00:33:57.360Z,18.23
2018-09-05T00:36:25.747Z,16.93
2018-09-05T00:38:54.134Z,16.97
2018-09-05T00:41:22.563Z,15.70
2018-09-05T00:43:50.904Z,16.30
2018-09-05T00:46:19.285Z,15.90
2018-09-05T00:48:47.711Z,19.60
2018-09-05T00:51:16.114Z,18.50
2018-09-05T00:54:17.145Z,17.00
2018-09-05T00:56:45.464Z,17.40
2018-09-05T00:59:13.820Z,17.83
2018-09-05T01:01:42.224Z,15.90
2018-09-05T01:04:10.635Z,17.00
2018-09-05T01:06:38.951Z,16.33
2018-09-05T01:09:08.236Z,16.30
2018-09-05T01:11:36.914Z,15.27
2018-09-05T01:14:05.751Z,16.43
2018-09-05T01:16:34.188Z,17.37
2018-09-05T01:19:02.861Z,16.63
2018-09-05T01:21:31.350Z,17.57
2018-09-05T01:23:59.662Z,17.47
2018-09-05T01:26:28.016Z,16.43
2018-09-05T01:28:56.406Z,17.27
2018-09-05T01:31:25.013Z,14.87
2018-09-05T01:33:53.410Z,16.63
2018-09-05T01:36:21.797Z,14.80
2018-09-05T01:38:50.081Z,15.57
2018-09-05T01:41:18.641Z,17.13
2018-09-05T01:43:46.964Z,16.37
2018-09-05T01:46:15.260Z,16.00
2018-09-05T01:48:43.599Z,14.93
2018-09-05T01:51:11.955Z,16.57
2018-09-05T01:53:40.360Z,16.07
2018-09-05T01:56:08.792Z,16.63
2018-09-05T01:58:37.199Z,15.27
2018-09-05T02:01:05.626Z,15.27
2018-09-05T02:03:34.124Z,17.73
2018-09-05T02:06:02.534Z,16.27
2018-09-05T02:08:30.915Z,15.77
2018-09-05T02:10:59.255Z,16.13
2018-09-05T02:13:27.728Z,19.27
2018-09-05T02:15:56.159Z,15.50
2018-09-05T02:18:24.586Z,17.33
2018-09-05T02:20:52.934Z,16.97
2018-09-05T02:23:21.388Z,14.80
2018-09-05T02:25:49.800Z,15.27
2018-09-05T02:28:18.207Z,18.47
2018-09-05T02:30:46.597Z,18.27
2018-09-05T02:33:14.955Z,16.30
2018-09-05T02:35:43.274Z,16.57
2018-09-05T02:38:11.571Z,18.43
2018-09-05T02:40:39.953Z,15.33
2018-09-05T02:43:08.423Z,16.57
2018-09-05T02:45:36.803Z,15.67
2018-09-05T02:48:05.337Z,18.40
2018-09-05T02:50:33.721Z,16.77
2018-09-05T02:53:02.196Z,17.33
2018-09-05T02:55:35.927Z,16.83
2018-09-05T02:58:04.326Z,19.57
2018-09-05T03:00:32.762Z,14.00
2018-09-05T03:03:01.146Z,14.20
2018-09-05T03:05:29.554Z,16.50
2018-09-05T03:07:57.998Z,17.97
2018-09-05T03:10:26.391Z,16.10
2018-09-05T03:12:54.717Z,15.80
2018-09-05T03:15:23.115Z,16.73
2018-09-05T03:17:51.537Z,18.43
2018-09-05T03:20:19.939Z,17.47
2018-09-05T03:22:48.396Z,19.10
2018-09-05T03:25:16.779Z,18.20
2018-09-05T03:27:45.302Z,16.30
2018-09-05T03:30:13.702Z,15.10
2018-09-05T03:32:42.233Z,18.60
2018-09-05T03:35:10.539Z,19.57
2018-09-05T03:37:38.838Z,17.93
2018-09-05T03:40:07.232Z,19.40
2018-09-05T03:42:35.575Z,15.33
2018-09-05T03:45:03.935Z,17.37
2018-09-05T03:47:32.310Z,17.07
2018-09-05T03:50:00.633Z,15.73
2018-09-05T03:52:29.215Z,18.60
2018-09-05T03:54:57.560Z,19.43
2018-09-05T03:57:25.908Z,20.03
2018-09-05T03:59:54.254Z,17.97
2018-09-05T04:02:22.627Z,19.20
2018-09-05T04:04:50.999Z,21.07
2018-09-05T04:07:19.282Z,18.63
2018-09-05T04:09:47.705Z,22.70
2018-09-05T04:12:16.086Z,17.37
2018-09-05T04:14:44.424Z,19.20
2018-09-05T04:17:12.812Z,20.80
2018-09-05T04:19:41.231Z,20.73
2018-09-05T04:22:09.646Z,22.17
2018-09-05T04:24:38.083Z,21.30
2018-09-05T04:27:06.712Z,23.17
2018-09-05T04:29:35.212Z,20.83
2018-09-05T04:32:03.462Z,16.90
2018-09-05T04:34:31.843Z,18.53
2018-09-05T04:37:00.229Z,18.97
2018-09-05T04:39:28.605Z,18.53
2018-09-05T04:41:57.023Z,17.13
2018-09-05T04:44:25.403Z,17.43
2018-09-05T04:46:53.694Z,19.17
2018-09-05T04:49:22.036Z,19.90
2018-09-05T04:51:50.327Z,20.37
2018-09-05T04:54:18.655Z,19.10
2018-09-05T04:56:46.941Z,19.93
2018-09-05T04:59:15.259Z,20.90
2018-09-05T05:01:43.548Z,21.63
2018-09-05T05:04:11.859Z,19.20
2018-09-05T05:06:40.156Z,21.47
2018-09-05T05:09:10.503Z,22.67
2018-09-05T05:11:39.079Z,19.47
2018-09-05T05:14:07.367Z,20.43
2018-09-05T05:16:35.701Z,20.13
2018-09-05T05:19:04.237Z,21.10
2018-09-05T05:21:32.704Z,20.43
2018-09-05T05:24:01.029Z,22.30
2018-09-05T05:26:29.670Z,19.00
2018-09-05T05:28:58.024Z,22.97
2018-09-05T05:31:26.318Z,22.57
2018-09-05T05:33:54.714Z,24.83
2018-09-05T05:36:22.998Z,20.60
2018-09-05T05:38:51.558Z,25.07
2018-09-05T05:41:19.945Z,20.13
2018-09-05T05:43:48.320Z,18.77
2018-09-05T05:46:16.699Z,19.90
2018-09-05T05:48:44.998Z,20.80
2018-09-05T05:51:13.285Z,20.30
2018-09-05T05:53:41.599Z,21.13
2018-09-05T05:56:09.917Z,26.87
2018-09-05T05:58:38.423Z,22.70
2018-09-05T06:01:06.739Z,24.17
2018-09-05T06:03:35.030Z,24.57
2018-09-05T06:06:03.480Z,22.80
2018-09-05T06:08:32.151Z,29.13
2018-09-05T06:11:00.492Z,18.77
2018-09-05T06:13:28.804Z,22.00
2018-09-05T06:15:57.147Z,20.90
2018-09-05T06:18:25.472Z,22.93
2018-09-05T06:20:53.795Z,21.07
2018-09-05T06:23:22.110Z,22.87
2018-09-05T06:25:50.435Z,22.87
2018-09-05T06:28:19.006Z,19.10
2018-09-05T06:30:47.367Z,21.70
2018-09-05T06:33:15.640Z,19.70
2018-09-05T06:35:43.946Z,20.80
2018-09-05T06:38:12.285Z,21.03
2018-09-05T06:40:40.611Z,21.90
2018-09-05T06:43:09.010Z,23.80
2018-09-05T06:45:37.827Z,20.60
2018-09-05T06:48:06.120Z,23.70
2018-09-05T06:50:34.573Z,22.07
2018-09-05T06:53:02.859Z,23.70
2018-09-05T06:55:31.187Z,22.23
2018-09-05T06:57:59.880Z,23.67
2018-09-05T07:00:28.218Z,23.50
2018-09-05T07:02:56.555Z,19.73
2018-09-05T07:05:24.896Z,20.87
2018-09-05T07:07:53.216Z,24.90
2018-09-05T07:10:21.538Z,21.40
2018-09-05T07:12:49.831Z,21.43
2018-09-05T07:15:18.131Z,26.03
2018-09-05T07:17:46.428Z,25.60
2018-09-05T07:20:14.789Z,23.60
2018-09-05T07:22:43.130Z,21.40
2018-09-05T07:25:11.444Z,22.67
2018-09-05T07:27:39.851Z,22.60
2018-09-05T07:30:08.094Z,22.80
2018-09-05T07:32:36.367Z,20.53
2018-09-05T07:35:04.688Z,21.57
2018-09-05T07:37:33.014Z,28.57
2018-09-05T07:40:01.316Z,22.27
2018-09-05T07:42:29.611Z,25.87
2018-09-05T07:44:57.939Z,29.33
2018-09-05T07:47:26.241Z,24.67
2018-09-05T07:49:54.545Z,24.60
2018-09-05T07:52:22.851Z,22.60
2018-09-05T07:54:51.173Z,27.10
2018-09-05T07:57:19.510Z,28.40
2018-09-05T07:59:48.089Z,31.43
2018-09-05T08:02:23.259Z,29.17
2018-09-05T08:04:51.615Z,29.33
2018-09-05T08:07:19.938Z,28.53
2018-09-05T08:09:48.235Z,22.43
2018-09-05T08:12:16.602Z,23.47
2018-09-05T08:14:44.947Z,27.93
2018-09-05T08:17:13.226Z,23.83
2018-09-05T08:19:41.516Z,24.70
2018-09-05T08:22:10.600Z,24.20
2018-09-05T08:24:38.960Z,24.17
2018-09-05T08:27:07.277Z,22.37
2018-09-05T08:29:35.682Z,21.93
2018-09-05T08:32:03.993Z,25.13
2018-09-05T08:34:32.268Z,24.93
2018-09-05T08:37:01.452Z,25.27
2018-09-05T08:39:29.431Z,27.43
2018-09-05T08:41:57.852Z,22.50
2018-09-05T08:44:26.396Z,23.50
2018-09-05T08:46:54.641Z,21.03
2018-09-05T08:49:22.885Z,20.80
2018-09-05T08:51:51.188Z,24.07
2018-09-05T08:54:19.472Z,21.33
2018-09-05T08:56:47.800Z,19.30
2018-09-05T08:59:16.120Z,22.20
2018-09-05T09:01:44.456Z,16.10
2018-09-05T09:04:12.752Z,19.23
2018-09-05T09:06:41.080Z,18.67
2018-09-05T09:09:10.821Z,21.13
2018-09-05T09:18:38.418Z,24.63
2018-09-05T09:21:06.736Z,16.70
2018-09-05T09:23:35.050Z,17.53
2018-09-05T09:26:03.349Z,16.97
2018-09-05T09:28:31.651Z,20.47
2018-09-05T09:30:59.952Z,16.93
2018-09-05T09:33:28.252Z,18.93
2018-09-05T09:35:56.555Z,16.77
2018-09-05T09:38:24.848Z,18.03
2018-09-05T09:40:53.134Z,20.30
2018-09-05T09:43:21.539Z,19.17
2018-09-05T09:45:49.829Z,20.33
2018-09-05T09:48:18.164Z,17.97
2018-09-05T09:50:46.464Z,18.23
2018-09-05T09:53:14.804Z,18.60
2018-09-05T09:55:43.088Z,18.97
2018-09-05T09:58:11.428Z,16.93
2018-09-05T10:00:45.229Z,17.47
2018-09-05T10:03:19.068Z,19.83
2018-09-05T10:06:26.066Z,18.20
2018-09-05T10:08:59.991Z,33.50
2018-09-05T10:11:33.762Z,19.83
2018-09-05T10:14:07.552Z,21.40
2018-09-05T10:16:40.439Z,16.83
2018-09-05T10:19:10.868Z,19.03
2018-09-05T10:21:39.139Z,17.20
2018-09-05T10:24:07.478Z,17.13
2018-09-05T10:26:35.971Z,15.77
2018-09-05T10:29:04.329Z,18.50
2018-09-05T10:31:32.700Z,15.53
2018-09-05T10:34:00.959Z,16.47
2018-09-05T10:36:29.299Z,15.17
2018-09-05T10:38:57.616Z,16.97
2018-09-05T10:41:25.981Z,14.67
2018-09-05T10:43:54.316Z,14.73
2018-09-05T10:46:22.620Z,16.97
2018-09-05T10:48:50.955Z,16.93
2018-09-05T10:51:23.727Z,14.50
2018-09-05T10:53:52.040Z,14.10
2018-09-05T10:56:23.418Z,14.50
2018-09-05T10:58:51.717Z,16.33
2018-09-05T11:01:20.124Z,16.67
2018-09-05T11:03:48.443Z,15.07
2018-09-05T11:06:16.781Z,14.87
2018-09-05T11:08:45.130Z,12.37
2018-09-05T11:11:13.424Z,14.07
2018-09-05T11:13:41.742Z,15.67
2018-09-05T11:16:10.041Z,14.07
2018-09-05T11:18:38.365Z,15.43
2018-09-05T11:21:06.751Z,16.93
2018-09-05T11:23:35.061Z,12.80
2018-09-05T11:26:03.350Z,15.23
2018-09-05T11:28:31.695Z,13.33
2018-09-05T11:31:00.003Z,12.43
2018-09-05T11:36:03.032Z,14.27
2018-09-05T11:38:31.341Z,16.00
2018-09-05T11:40:59.719Z,11.20
2018-09-05T11:43:28.128Z,10.90
2018-09-05T11:45:56.420Z,10.87
2018-09-05T11:48:24.733Z,10.17
2018-09-05T11:50:53.048Z,17.23
2018-09-05T11:53:21.352Z,12.50
2018-09-05T11:55:49.613Z,9.83
2018-09-05T11:58:17.915Z,13.87
2018-09-05T12:00:46.218Z,12.57
2018-09-05T12:03:14.551Z,10.03
2018-09-05T12:05:42.829Z,9.47
2018-09-05T12:08:11.196Z,10.23
2018-09-05T12:10:39.494Z,12.97
2018-09-05T12:13:07.800Z,10.43
2018-09-05T12:15:36.142Z,9.07
2018-09-05T12:18:04.436Z,11.47
2018-09-05T12:20:32.716Z,10.47
2018-09-05T12:23:01.048Z,12.23
2018-09-05T12:25:29.371Z,9.57
2018-09-05T12:27:57.690Z,10.77
2018-09-05T12:30:25.959Z,10.43
2018-09-05T12:32:54.216Z,9.23
2018-09-05T12:35:22.520Z,9.53
2018-09-05T12:37:50.826Z,10.43
2018-09-05T12:40:19.174Z,10.53
2018-09-05T12:42:47.473Z,9.90
2018-09-05T12:45:15.797Z,10.33
2018-09-05T12:47:44.106Z,17.67
2018-09-05T12:50:12.420Z,16.77
2018-09-05T12:52:40.700Z,10.90
2018-09-05T12:55:09.017Z,9.40
2018-09-05T12:57:37.317Z,12.23
2018-09-05T13:00:05.727Z,11.70
2018-09-05T13:02:34.080Z,10.13
2018-09-05T13:05:03.784Z,8.83
2018-09-05T13:07:32.035Z,10.40
2018-09-05T13:10:00.363Z,8.93
2018-09-05T13:12:28.681Z,11.60
2018-09-05T13:14:56.971Z,10.32
2018-09-05T13:17:25.263Z,8.80
2018-09-05T13:19:53.585Z,8.70
2018-09-05T13:22:21.856Z,9.25
2018-09-05T13:24:50.184Z,9.35
2018-09-05T13:27:18.474Z,9.08
2018-09-05T13:29:46.770Z,8.30
2018-09-05T13:32:15.047Z,9.25
2018-09-05T13:34:43.365Z,9.05
2018-09-05T13:37:11.674Z,12.10
2018-09-05T13:39:39.990Z,9.30
2018-09-05T13:42:08.340Z,11.22
2018-09-05T13:44:36.646Z,8.80
2018-09-05T13:47:04.948Z,16.02
2018-09-05T13:49:33.238Z,10.75
2018-09-05T13:52:04.713Z,11.53
2018-09-05T13:54:34.345Z,10.18
2018-09-05T13:57:02.791Z,9.98
2018-09-05T13:59:31.504Z,10.45
2018-09-05T14:01:59.807Z,11.48
2018-09-05T14:04:28.115Z,9.13
2018-09-05T14:06:56.401Z,9.83
2018-09-05T14:09:24.787Z,9.50
2018-09-05T14:11:53.079Z,10.05
2018-09-05T14:14:21.910Z,11.50
2018-09-05T14:16:50.176Z,12.35
2018-09-05T14:19:18.453Z,10.03
2018-09-05T14:21:46.754Z,10.85
2018-09-05T14:24:15.074Z,11.43
2018-09-05T14:26:43.376Z,8.88
2018-09-05T14:29:11.696Z,11.18
2018-09-05T14:31:40.022Z,12.07
2018-09-05T14:34:08.366Z,9.98
2018-09-05T14:36:36.704Z,9.35
2018-09-05T14:39:07.482Z,9.65
2018-09-05T14:41:35.766Z,8.73
2018-09-05T14:44:04.106Z,9.40
2018-09-05T14:46:32.395Z,9.05
2018-09-05T14:49:00.680Z,9.90
2018-09-05T14:51:28.982Z,10.05
2018-09-05T14:53:57.283Z,9.65
2018-09-05T14:56:25.587Z,9.95
2018-09-05T14:58:53.868Z,9.63
2018-09-05T15:01:22.193Z,9.65
2018-09-05T15:03:50.500Z,8.55
2018-09-05T15:06:19.032Z,12.03
2018-09-05T15:08:47.582Z,8.25
2018-09-05T15:11:15.885Z,8.20
2018-09-05T15:13:44.173Z,8.48
2018-09-05T15:16:12.834Z,8.55
2018-09-05T15:18:41.450Z,8.28
2018-09-05T15:21:09.740Z,7.80
2018-09-05T15:23:38.054Z,8.13
2018-09-05T15:26:06.403Z,8.78
2018-09-05T15:28:34.770Z,8.33
2018-09-05T15:31:03.123Z,8.28
2018-09-05T15:33:31.432Z,8.08
2018-09-05T15:35:59.792Z,6.97
2018-09-05T15:38:28.158Z,6.85
2018-09-05T15:40:56.457Z,7.37
2018-09-05T15:43:25.096Z,7.20
2018-09-05T15:45:53.415Z,7.97
2018-09-05T15:48:21.713Z,7.30
2018-09-05T15:50:50.028Z,7.67
2018-09-05T15:53:18.699Z,9.55
2018-09-05T15:55:47.115Z,7.10
2018-09-05T15:58:15.406Z,8.00
2018-09-05T16:00:43.723Z,7.00
2018-09-05T16:03:12.036Z,7.70
2018-09-05T16:05:40.364Z,8.18
2018-09-05T16:08:09.104Z,8.00
2018-09-05T16:10:37.991Z,7.03
2018-09-05T16:13:06.563Z,9.45
2018-09-05T16:15:35.153Z,7.80
2018-09-05T16:18:03.260Z,9.20
2018-09-05T16:20:37.999Z,8.10
2018-09-05T16:23:06.538Z,12.53
2018-09-05T16:25:34.859Z,10.48
2018-09-05T16:28:03.162Z,8.35
2018-09-05T16:30:31.486Z,11.50
2018-09-05T16:32:59.767Z,8.70
2018-09-05T16:35:28.161Z,11.55
2018-09-05T16:37:56.407Z,12.20
2018-09-05T16:40:24.740Z,8.08
2018-09-05T16:42:53.057Z,9.00
2018-09-05T16:45:21.495Z,8.18
2018-09-05T16:47:49.806Z,8.53
2018-09-05T16:50:18.106Z,9.15
2018-09-05T16:52:46.383Z,8.53
2018-09-05T16:55:14.694Z,8.45
2018-09-05T16:57:42.987Z,8.55
2018-09-05T17:00:11.323Z,8.15
2018-09-05T17:02:39.626Z,8.63
2018-09-05T17:05:07.937Z,9.93
2018-09-05T17:07:36.193Z,9.40
2018-09-05T17:10:04.557Z,10.28
2018-09-05T17:12:32.869Z,9.28
2018-09-05T17:15:01.334Z,10.75
2018-09-05T17:17:29.643Z,8.85
2018-09-05T17:19:57.975Z,13.03
2018-09-05T17:22:26.311Z,12.33
2018-09-05T17:24:54.658Z,14.63
2018-09-05T17:27:23.032Z,10.65
2018-09-05T17:29:51.340Z,14.03
2018-09-05T17:32:19.660Z,14.13
2018-09-05T17:34:47.975Z,22.07
2018-09-05T17:37:16.319Z,21.75
2018-09-05T17:39:44.636Z,17.07
2018-09-05T17:42:12.999Z,14.18
2018-09-05T17:44:41.307Z,23.83
2018-09-05T17:47:09.632Z,16.57
2018-09-05T17:49:37.941Z,15.05
2018-09-05T17:52:06.327Z,19.00
2018-09-05T17:54:34.598Z,21.17
2018-09-05T17:57:02.891Z,16.50
2018-09-05T17:59:31.196Z,15.20
2018-09-05T18:01:59.546Z,16.35
2018-09-05T18:04:27.843Z,17.92
2018-09-05T18:06:56.179Z,20.62
2018-09-05T18:09:24.472Z,18.12
2018-09-05T18:11:52.866Z,26.52
2018-09-05T18:14:21.166Z,24.65
2018-09-05T18:16:49.491Z,18.52
2018-09-05T18:19:17.877Z,24.87
2018-09-05T18:21:46.192Z,22.17
2018-09-05T18:24:14.595Z,27.07
2018-09-05T18:26:42.890Z,29.63
2018-09-05T18:29:11.191Z,27.90
2018-09-05T18:31:39.512Z,28.50
2018-09-05T18:34:07.801Z,24.70
2018-09-05T18:36:36.131Z,26.20
2018-09-05T18:39:06.282Z,24.03
2018-09-05T18:41:34.613Z,25.73
2018-09-05T18:44:02.936Z,24.90
2018-09-05T18:46:31.332Z,18.77
2018-09-05T18:48:59.735Z,15.53
2018-09-05T18:51:28.036Z,18.00
2018-09-05T18:53:56.410Z,13.70
2018-09-05T18:56:24.751Z,18.67
2018-09-05T18:58:53.073Z,18.50
2018-09-05T19:01:21.500Z,13.87
2018-09-05T19:03:49.804Z,15.97
2018-09-05T19:06:18.144Z,17.20
2018-09-05T19:08:46.447Z,12.97
2018-09-05T19:11:14.872Z,14.10
2018-09-05T19:13:43.181Z,14.87
2018-09-05T19:16:11.564Z,18.03
2018-09-05T19:18:39.916Z,13.07
2018-09-05T19:21:08.206Z,14.53
2018-09-05T19:23:36.698Z,16.60
2018-09-05T19:26:05.039Z,16.90
2018-09-05T19:28:33.357Z,15.10
2018-09-05T19:31:01.633Z,15.37
2018-09-05T19:33:29.963Z,12.77
2018-09-05T19:35:58.243Z,14.97
2018-09-05T19:38:26.687Z,13.10
2018-09-05T19:40:55.039Z,19.43
2018-09-05T19:43:23.411Z,13.60
2018-09-05T19:45:51.690Z,14.73
2018-09-05T19:48:20.091Z,14.33
2018-09-05T19:50:48.393Z,14.90
2018-09-05T19:53:16.737Z,15.23
2018-09-05T19:55:45.046Z,15.33
2018-09-05T19:58:19.945Z,14.93
2018-09-05T20:00:48.273Z,17.80
2018-09-05T20:03:16.611Z,17.20
2018-09-05T20:05:44.916Z,15.07
2018-09-05T20:08:13.485Z,13.70
2018-09-05T20:10:41.787Z,13.10
2018-09-05T20:13:10.179Z,15.73
2018-09-05T20:15:38.590Z,16.97
2018-09-05T20:18:07.201Z,19.23
2018-09-05T20:20:35.991Z,16.10
2018-09-05T20:23:04.370Z,16.53
2018-09-05T20:25:33.038Z,17.57
2018-09-05T20:28:01.386Z,17.50
2018-09-05T20:30:29.767Z,14.93
2018-09-05T20:32:58.139Z,13.60
2018-09-05T20:35:26.581Z,15.77
2018-09-05T20:37:59.044Z,17.83
2018-09-05T20:40:27.521Z,16.43
2018-09-05T20:42:55.927Z,17.93
2018-09-05T20:45:24.360Z,18.50
2018-09-05T20:47:52.730Z,17.60
2018-09-05T20:50:21.802Z,15.90
2018-09-05T20:52:50.805Z,14.80
2018-09-05T20:55:19.157Z,19.70
2018-09-05T20:57:47.580Z,15.77
2018-09-05T21:00:15.942Z,15.80
2018-09-05T21:02:44.941Z,16.17
2018-09-05T21:05:13.943Z,13.93
2018-09-05T21:07:42.327Z,14.80
2018-09-05T21:10:10.756Z,15.77
2018-09-05T21:12:39.088Z,15.67
2018-09-05T21:15:07.390Z,15.07
2018-09-05T21:17:37.071Z,18.83
2018-09-05T21:20:06.469Z,19.33
2018-09-05T21:22:36.110Z,16.20
2018-09-05T21:25:05.163Z,16.10
2018-09-05T21:27:34.036Z,13.60
2018-09-05T21:30:02.442Z,18.87
2018-09-05T21:32:30.776Z,15.60
2018-09-05T21:34:59.350Z,15.00
2018-09-05T21:37:28.357Z,15.53
2018-09-05T21:39:56.864Z,16.97
2018-09-05T21:42:25.983Z,18.57
2018-09-05T21:44:54.780Z,16.97
2018-09-05T21:47:23.247Z,20.27
2018-09-05T21:49:51.610Z,13.60
2018-09-05T21:52:20.020Z,15.20
2018-09-05T21:54:48.368Z,17.43
2018-09-05T21:57:17.482Z,15.23
2018-09-05T21:59:45.791Z,19.07
2018-09-05T22:02:14.133Z,18.73
2018-09-05T22:04:42.559Z,18.67
2018-09-05T22:07:11.220Z,16.07
2018-09-05T22:09:39.686Z,16.40
2018-09-05T22:12:08.147Z,24.80
2018-09-05T22:14:36.592Z,16.97
2018-09-05T22:17:04.970Z,17.30
2018-09-05T22:19:33.356Z,16.23
2018-09-05T22:22:01.835Z,14.87
2018-09-05T22:24:30.208Z,18.20
2018-09-05T22:26:58.583Z,17.27
2018-09-05T22:29:26.937Z,17.53
2018-09-05T22:31:56.160Z,16.83
2018-09-05T22:34:24.514Z,19.20
2018-09-05T22:36:52.817Z,19.73
2018-09-05T22:39:21.188Z,15.60
2018-09-05T22:41:49.501Z,20.70
2018-09-05T22:44:29.162Z,19.10
2018-09-05T22:47:08.815Z,16.13
2018-09-05T22:51:05.814Z,16.67
2018-09-05T22:55:56.765Z,18.20
2018-09-05T23:00:45.899Z,15.23
2018-09-05T23:04:26.256Z,19.07
2018-09-05T23:07:37.960Z,17.97
2018-09-05T23:10:17.913Z,18.90
2018-09-05T23:12:57.658Z,16.00
2018-09-05T23:15:37.299Z,15.50
2018-09-05T23:18:17.785Z,14.23
2018-09-05T23:21:00.633Z,15.10
2018-09-05T23:23:40.612Z,18.97
2018-09-05T23:26:09.197Z,17.07
2018-09-05T23:28:38.224Z,14.27
2018-09-05T23:31:06.587Z,15.83
2018-09-05T23:33:35.761Z,18.23
2018-09-05T23:36:04.663Z,19.37
2018-09-05T23:38:33.007Z,14.53
2018-09-05T23:41:01.385Z,15.70
2018-09-05T23:43:29.740Z,19.03
2018-09-05T23:45:58.071Z,17.97
2018-09-05T23:48:26.534Z,16.97
2018-09-05T23:50:55.336Z,21.67
2018-09-05T23:53:23.791Z,16.87
2018-09-05T23:55:52.124Z,16.50
2018-09-05T23:58:20.482Z,17.70
